sensor_id;sensor_type;location;lat;lon;timestamp;temperature;humidity
11304;DHT22;5707;49.588;12.148;2022-09-09T00:02:36;11.00;99.90
11304;DHT22;5707;49.588;12.148;2022-09-09T00:05:17;11.00;99.90
11304;DHT22;5707;49.588;12.148;2022-09-09T00:08:01;10.90;99.90
11304;DHT22;5707;49.588;12.148;2022-09-09T00:10:42;11.00;99.90
11304;DHT22;5707;49.588;12.148;2022-09-09T00:13:22;11.00;99.90
11304;DHT22;5707;49.588;12.148;2022-09-09T00:16:04;11.00;99.90
11304;DHT22;5707;49.588;12.148;2022-09-09T00:18:50;10.90;99.90
11304;DHT22;5707;49.588;12.148;2022-09-09T00:21:32;10.70;99.90
11304;DHT22;5707;49.588;12.148;2022-09-09T00:24:15;10.60;99.90
11304;DHT22;5707;49.588;12.148;2022-09-09T00:26:59;10.50;99.90
11304;DHT22;5707;49.588;12.148;2022-09-09T00:29:41;10.40;99.90
11304;DHT22;5707;49.588;12.148;2022-09-09T00:32:22;10.40;99.90
11304;DHT22;5707;49.588;12.148;2022-09-09T00:35:03;10.50;99.90
11304;DHT22;5707;49.588;12.148;2022-09-09T00:37:52;10.50;99.90
11304;DHT22;5707;49.588;12.148;2022-09-09T00:40:33;10.40;99.90
11304;DHT22;5707;49.588;12.148;2022-09-09T00:43:19;10.40;99.90
11304;DHT22;5707;49.588;12.148;2022-09-09T00:46:27;10.50;99.90
11304;DHT22;5707;49.588;12.148;2022-09-09T00:49:15;10.50;99.90
11304;DHT22;5707;49.588;12.148;2022-09-09T00:52:02;10.50;99.90
11304;DHT22;5707;49.588;12.148;2022-09-09T00:54:45;10.40;99.90
11304;DHT22;5707;49.588;12.148;2022-09-09T00:57:28;10.40;99.90
11304;DHT22;5707;49.588;12.148;2022-09-09T01:00:19;10.50;99.90
11304;DHT22;5707;49.588;12.148;2022-09-09T01:03:03;10.50;99.90
11304;DHT22;5707;49.588;12.148;2022-09-09T01:05:49;10.50;99.90
11304;DHT22;5707;49.588;12.148;2022-09-09T01:08:39;10.50;99.90
11304;DHT22;5707;49.588;12.148;2022-09-09T01:11:21;10.60;99.90
11304;DHT22;5707;49.588;12.148;2022-09-09T01:14:11;10.70;99.90
11304;DHT22;5707;49.588;12.148;2022-09-09T01:16:54;10.60;99.90
11304;DHT22;5707;49.588;12.148;2022-09-09T01:19:40;10.50;99.90
11304;DHT22;5707;49.588;12.148;2022-09-09T01:22:26;10.40;99.90
11304;DHT22;5707;49.588;12.148;2022-09-09T01:28:20;10.30;99.90
11304;DHT22;5707;49.588;12.148;2022-09-09T01:31:05;10.30;99.90
11304;DHT22;5707;49.588;12.148;2022-09-09T01:33:52;10.30;99.90
11304;DHT22;5707;49.588;12.148;2022-09-09T01:36:35;10.20;99.90
11304;DHT22;5707;49.588;12.148;2022-09-09T01:39:18;10.20;99.90
11304;DHT22;5707;49.588;12.148;2022-09-09T01:42:07;10.10;99.90
11304;DHT22;5707;49.588;12.148;2022-09-09T01:44:47;10.00;99.90
11304;DHT22;5707;49.588;12.148;2022-09-09T01:47:27;10.00;99.90
11304;DHT22;5707;49.588;12.148;2022-09-09T01:50:20;10.00;99.90
11304;DHT22;5707;49.588;12.148;2022-09-09T01:53:01;10.00;99.90
11304;DHT22;5707;49.588;12.148;2022-09-09T01:55:46;10.00;99.90
11304;DHT22;5707;49.588;12.148;2022-09-09T01:58:34;10.00;99.90
11304;DHT22;5707;49.588;12.148;2022-09-09T02:01:17;10.00;99.90
11304;DHT22;5707;49.588;12.148;2022-09-09T02:04:02;10.00;99.90
11304;DHT22;5707;49.588;12.148;2022-09-09T02:06:44;10.00;99.90
11304;DHT22;5707;49.588;12.148;2022-09-09T02:09:34;9.90;99.90
11304;DHT22;5707;49.588;12.148;2022-09-09T02:12:16;9.90;99.90
11304;DHT22;5707;49.588;12.148;2022-09-09T02:15:07;9.90;99.90
11304;DHT22;5707;49.588;12.148;2022-09-09T02:17:58;10.00;99.90
11304;DHT22;5707;49.588;12.148;2022-09-09T02:20:39;10.00;99.90
11304;DHT22;5707;49.588;12.148;2022-09-09T02:23:20;10.00;99.90
11304;DHT22;5707;49.588;12.148;2022-09-09T02:26:03;10.10;99.90
11304;DHT22;5707;49.588;12.148;2022-09-09T02:28:43;10.20;99.90
11304;DHT22;5707;49.588;12.148;2022-09-09T02:31:23;10.30;99.90
11304;DHT22;5707;49.588;12.148;2022-09-09T02:34:08;10.30;99.90
11304;DHT22;5707;49.588;12.148;2022-09-09T02:36:49;10.30;99.90
11304;DHT22;5707;49.588;12.148;2022-09-09T02:39:30;10.40;99.90
11304;DHT22;5707;49.588;12.148;2022-09-09T02:42:10;10.40;99.90
11304;DHT22;5707;49.588;12.148;2022-09-09T02:44:52;10.50;99.90
11304;DHT22;5707;49.588;12.148;2022-09-09T02:47:33;10.60;99.90
11304;DHT22;5707;49.588;12.148;2022-09-09T02:50:20;10.60;99.90
11304;DHT22;5707;49.588;12.148;2022-09-09T02:53:05;10.50;99.90
11304;DHT22;5707;49.588;12.148;2022-09-09T02:55:51;10.50;99.90
11304;DHT22;5707;49.588;12.148;2022-09-09T02:58:35;10.60;99.90
11304;DHT22;5707;49.588;12.148;2022-09-09T03:01:18;10.60;99.90
11304;DHT22;5707;49.588;12.148;2022-09-09T03:03:58;10.60;99.90
11304;DHT22;5707;49.588;12.148;2022-09-09T03:06:37;10.60;99.90
11304;DHT22;5707;49.588;12.148;2022-09-09T03:09:27;10.60;99.90
11304;DHT22;5707;49.588;12.148;2022-09-09T03:12:08;10.70;99.90
11304;DHT22;5707;49.588;12.148;2022-09-09T03:14:50;10.70;99.90
11304;DHT22;5707;49.588;12.148;2022-09-09T03:17:30;10.70;99.90
11304;DHT22;5707;49.588;12.148;2022-09-09T03:20:10;10.70;99.90
11304;DHT22;5707;49.588;12.148;2022-09-09T03:22:51;10.80;99.90
11304;DHT22;5707;49.588;12.148;2022-09-09T03:25:32;10.80;99.90
11304;DHT22;5707;49.588;12.148;2022-09-09T03:28:14;10.80;99.90
11304;DHT22;5707;49.588;12.148;2022-09-09T03:30:58;10.80;99.90
11304;DHT22;5707;49.588;12.148;2022-09-09T03:33:38;10.70;99.90
11304;DHT22;5707;49.588;12.148;2022-09-09T03:36:20;10.80;99.90
11304;DHT22;5707;49.588;12.148;2022-09-09T03:38:59;10.80;99.90
11304;DHT22;5707;49.588;12.148;2022-09-09T03:41:42;10.90;99.90
11304;DHT22;5707;49.588;12.148;2022-09-09T03:44:27;11.10;99.90
11304;DHT22;5707;49.588;12.148;2022-09-09T03:47:07;11.30;99.90
11304;DHT22;5707;49.588;12.148;2022-09-09T03:49:47;11.60;99.90
11304;DHT22;5707;49.588;12.148;2022-09-09T03:52:28;11.80;99.90
11304;DHT22;5707;49.588;12.148;2022-09-09T03:55:10;12.10;99.90
11304;DHT22;5707;49.588;12.148;2022-09-09T03:57:49;12.10;99.90
11304;DHT22;5707;49.588;12.148;2022-09-09T04:00:31;12.30;99.90
11304;DHT22;5707;49.588;12.148;2022-09-09T04:03:11;12.50;99.90
11304;DHT22;5707;49.588;12.148;2022-09-09T04:05:51;12.60;99.90
11304;DHT22;5707;49.588;12.148;2022-09-09T04:08:30;12.70;99.90
11304;DHT22;5707;49.588;12.148;2022-09-09T04:11:12;12.70;99.90
11304;DHT22;5707;49.588;12.148;2022-09-09T04:13:53;12.70;99.90
11304;DHT22;5707;49.588;12.148;2022-09-09T04:16:33;12.80;99.90
11304;DHT22;5707;49.588;12.148;2022-09-09T04:19:14;12.90;99.90
11304;DHT22;5707;49.588;12.148;2022-09-09T04:21:56;13.00;99.90
11304;DHT22;5707;49.588;12.148;2022-09-09T04:24:36;13.10;99.90
11304;DHT22;5707;49.588;12.148;2022-09-09T04:27:16;13.00;99.90
11304;DHT22;5707;49.588;12.148;2022-09-09T04:29:55;13.00;99.90
11304;DHT22;5707;49.588;12.148;2022-09-09T04:32:37;12.90;99.90
11304;DHT22;5707;49.588;12.148;2022-09-09T04:35:17;12.90;99.90
11304;DHT22;5707;49.588;12.148;2022-09-09T04:38:00;12.80;99.90
11304;DHT22;5707;49.588;12.148;2022-09-09T04:40:43;12.90;99.90
11304;DHT22;5707;49.588;12.148;2022-09-09T04:43:24;12.90;99.90
11304;DHT22;5707;49.588;12.148;2022-09-09T04:46:07;12.80;99.90
11304;DHT22;5707;49.588;12.148;2022-09-09T04:48:47;12.90;99.90
11304;DHT22;5707;49.588;12.148;2022-09-09T04:51:28;12.90;99.90
11304;DHT22;5707;49.588;12.148;2022-09-09T04:54:10;12.90;99.90
11304;DHT22;5707;49.588;12.148;2022-09-09T04:56:53;13.00;99.90
11304;DHT22;5707;49.588;12.148;2022-09-09T04:59:33;13.00;99.90
11304;DHT22;5707;49.588;12.148;2022-09-09T05:02:14;13.00;99.90
11304;DHT22;5707;49.588;12.148;2022-09-09T05:04:54;13.00;99.90
11304;DHT22;5707;49.588;12.148;2022-09-09T05:07:35;13.00;99.90
11304;DHT22;5707;49.588;12.148;2022-09-09T05:10:15;13.00;99.90
11304;DHT22;5707;49.588;12.148;2022-09-09T05:12:58;13.00;99.90
11304;DHT22;5707;49.588;12.148;2022-09-09T05:15:41;13.10;99.90
11304;DHT22;5707;49.588;12.148;2022-09-09T05:18:21;13.20;99.90
11304;DHT22;5707;49.588;12.148;2022-09-09T05:21:01;13.30;99.90
11304;DHT22;5707;49.588;12.148;2022-09-09T05:23:42;13.40;99.90
11304;DHT22;5707;49.588;12.148;2022-09-09T05:26:22;13.40;99.90
11304;DHT22;5707;49.588;12.148;2022-09-09T05:29:05;13.50;99.90
11304;DHT22;5707;49.588;12.148;2022-09-09T05:31:47;13.40;99.90
11304;DHT22;5707;49.588;12.148;2022-09-09T05:34:30;13.50;99.90
11304;DHT22;5707;49.588;12.148;2022-09-09T05:37:09;13.60;99.90
11304;DHT22;5707;49.588;12.148;2022-09-09T05:39:49;13.80;99.90
11304;DHT22;5707;49.588;12.148;2022-09-09T05:42:30;13.90;99.90
11304;DHT22;5707;49.588;12.148;2022-09-09T05:45:12;13.80;99.90
11304;DHT22;5707;49.588;12.148;2022-09-09T05:47:52;13.80;99.90
11304;DHT22;5707;49.588;12.148;2022-09-09T05:50:33;13.70;99.90
11304;DHT22;5707;49.588;12.148;2022-09-09T05:53:13;13.70;99.90
11304;DHT22;5707;49.588;12.148;2022-09-09T05:55:59;13.70;99.90
11304;DHT22;5707;49.588;12.148;2022-09-09T05:58:41;13.80;99.90
11304;DHT22;5707;49.588;12.148;2022-09-09T06:01:23;14.00;99.90
11304;DHT22;5707;49.588;12.148;2022-09-09T06:04:04;14.10;99.90
11304;DHT22;5707;49.588;12.148;2022-09-09T06:06:45;14.20;99.90
11304;DHT22;5707;49.588;12.148;2022-09-09T06:09:30;14.40;99.90
11304;DHT22;5707;49.588;12.148;2022-09-09T06:12:10;14.60;99.90
11304;DHT22;5707;49.588;12.148;2022-09-09T06:14:51;14.60;99.90
11304;DHT22;5707;49.588;12.148;2022-09-09T06:17:34;14.70;99.90
11304;DHT22;5707;49.588;12.148;2022-09-09T06:20:14;14.80;99.90
11304;DHT22;5707;49.588;12.148;2022-09-09T06:22:55;14.90;99.90
11304;DHT22;5707;49.588;12.148;2022-09-09T06:25:35;15.10;99.90
11304;DHT22;5707;49.588;12.148;2022-09-09T06:28:15;15.30;99.90
11304;DHT22;5707;49.588;12.148;2022-09-09T06:30:58;15.60;99.90
11304;DHT22;5707;49.588;12.148;2022-09-09T06:33:38;16.10;99.90
11304;DHT22;5707;49.588;12.148;2022-09-09T06:36:20;16.50;99.90
11304;DHT22;5707;49.588;12.148;2022-09-09T06:39:01;16.70;99.90
11304;DHT22;5707;49.588;12.148;2022-09-09T06:41:42;16.70;99.90
11304;DHT22;5707;49.588;12.148;2022-09-09T06:44:38;16.70;99.90
11304;DHT22;5707;49.588;12.148;2022-09-09T06:47:21;16.90;99.90
11304;DHT22;5707;49.588;12.148;2022-09-09T06:50:01;17.10;99.90
11304;DHT22;5707;49.588;12.148;2022-09-09T06:52:44;17.20;99.90
11304;DHT22;5707;49.588;12.148;2022-09-09T06:55:27;17.60;99.90
11304;DHT22;5707;49.588;12.148;2022-09-09T06:58:08;17.90;99.90
11304;DHT22;5707;49.588;12.148;2022-09-09T07:00:50;18.20;99.90
11304;DHT22;5707;49.588;12.148;2022-09-09T07:03:30;18.20;99.90
11304;DHT22;5707;49.588;12.148;2022-09-09T07:06:12;18.00;99.90
11304;DHT22;5707;49.588;12.148;2022-09-09T07:08:55;17.70;99.90
11304;DHT22;5707;49.588;12.148;2022-09-09T07:11:38;17.40;99.90
11304;DHT22;5707;49.588;12.148;2022-09-09T07:14:20;17.30;99.90
11304;DHT22;5707;49.588;12.148;2022-09-09T07:17:05;17.30;99.90
11304;DHT22;5707;49.588;12.148;2022-09-09T07:19:49;17.30;99.90
11304;DHT22;5707;49.588;12.148;2022-09-09T07:22:29;17.30;99.90
11304;DHT22;5707;49.588;12.148;2022-09-09T07:25:09;17.40;99.90
11304;DHT22;5707;49.588;12.148;2022-09-09T07:27:50;17.40;99.90
11304;DHT22;5707;49.588;12.148;2022-09-09T07:30:30;17.40;99.90
11304;DHT22;5707;49.588;12.148;2022-09-09T07:33:10;17.60;99.90
11304;DHT22;5707;49.588;12.148;2022-09-09T07:35:50;17.60;99.90
11304;DHT22;5707;49.588;12.148;2022-09-09T07:38:30;17.70;99.90
11304;DHT22;5707;49.588;12.148;2022-09-09T07:41:10;17.70;99.90
11304;DHT22;5707;49.588;12.148;2022-09-09T07:43:51;17.60;99.90
11304;DHT22;5707;49.588;12.148;2022-09-09T07:46:32;17.60;99.90
11304;DHT22;5707;49.588;12.148;2022-09-09T07:49:14;17.70;99.90
11304;DHT22;5707;49.588;12.148;2022-09-09T07:51:54;17.50;99.90
11304;DHT22;5707;49.588;12.148;2022-09-09T07:54:33;17.40;99.90
11304;DHT22;5707;49.588;12.148;2022-09-09T07:57:16;17.50;99.90
11304;DHT22;5707;49.588;12.148;2022-09-09T07:59:56;17.70;99.90
11304;DHT22;5707;49.588;12.148;2022-09-09T08:02:38;17.90;99.90
11304;DHT22;5707;49.588;12.148;2022-09-09T08:05:18;18.10;99.90
11304;DHT22;5707;49.588;12.148;2022-09-09T08:07:57;18.30;99.90
11304;DHT22;5707;49.588;12.148;2022-09-09T08:10:39;18.60;99.90
11304;DHT22;5707;49.588;12.148;2022-09-09T08:13:19;18.80;99.90
11304;DHT22;5707;49.588;12.148;2022-09-09T08:16:07;19.00;99.90
11304;DHT22;5707;49.588;12.148;2022-09-09T08:18:48;19.00;99.90
11304;DHT22;5707;49.588;12.148;2022-09-09T08:21:30;18.70;99.90
11304;DHT22;5707;49.588;12.148;2022-09-09T08:24:12;18.40;99.90
11304;DHT22;5707;49.588;12.148;2022-09-09T08:26:54;17.90;99.90
11304;DHT22;5707;49.588;12.148;2022-09-09T08:29:37;17.70;99.90
11304;DHT22;5707;49.588;12.148;2022-09-09T08:32:17;17.80;99.90
11304;DHT22;5707;49.588;12.148;2022-09-09T08:34:58;18.00;99.90
11304;DHT22;5707;49.588;12.148;2022-09-09T08:37:39;18.40;99.90
11304;DHT22;5707;49.588;12.148;2022-09-09T08:40:21;18.80;99.90
11304;DHT22;5707;49.588;12.148;2022-09-09T08:43:02;19.00;99.90
11304;DHT22;5707;49.588;12.148;2022-09-09T08:45:47;18.90;99.90
11304;DHT22;5707;49.588;12.148;2022-09-09T08:48:34;18.80;99.90
11304;DHT22;5707;49.588;12.148;2022-09-09T08:51:18;18.80;99.90
11304;DHT22;5707;49.588;12.148;2022-09-09T08:53:59;19.10;99.90
11304;DHT22;5707;49.588;12.148;2022-09-09T08:56:42;19.80;99.90
11304;DHT22;5707;49.588;12.148;2022-09-09T08:59:24;20.70;99.90
11304;DHT22;5707;49.588;12.148;2022-09-09T09:02:04;21.10;99.90
11304;DHT22;5707;49.588;12.148;2022-09-09T09:05:08;21.40;99.90
11304;DHT22;5707;49.588;12.148;2022-09-09T09:07:55;21.30;99.90
11304;DHT22;5707;49.588;12.148;2022-09-09T09:10:44;21.20;99.90
11304;DHT22;5707;49.588;12.148;2022-09-09T09:13:33;21.00;99.90
11304;DHT22;5707;49.588;12.148;2022-09-09T09:16:19;20.60;99.90
11304;DHT22;5707;49.588;12.148;2022-09-09T09:19:03;20.00;99.90
11304;DHT22;5707;49.588;12.148;2022-09-09T09:21:47;19.60;99.90
11304;DHT22;5707;49.588;12.148;2022-09-09T09:24:32;19.30;99.90
11304;DHT22;5707;49.588;12.148;2022-09-09T09:27:17;19.50;99.90
11304;DHT22;5707;49.588;12.148;2022-09-09T09:30:05;19.80;99.90
11304;DHT22;5707;49.588;12.148;2022-09-09T09:32:54;19.80;99.90
11304;DHT22;5707;49.588;12.148;2022-09-09T09:35:36;19.40;99.90
11304;DHT22;5707;49.588;12.148;2022-09-09T09:38:18;18.90;99.90
11304;DHT22;5707;49.588;12.148;2022-09-09T09:41:00;18.80;99.90
11304;DHT22;5707;49.588;12.148;2022-09-09T09:43:42;19.10;99.90
11304;DHT22;5707;49.588;12.148;2022-09-09T09:46:27;19.30;99.90
11304;DHT22;5707;49.588;12.148;2022-09-09T09:49:13;19.70;99.90
11304;DHT22;5707;49.588;12.148;2022-09-09T09:51:52;20.10;99.90
11304;DHT22;5707;49.588;12.148;2022-09-09T09:54:33;20.20;99.90
11304;DHT22;5707;49.588;12.148;2022-09-09T09:57:15;20.40;99.90
11304;DHT22;5707;49.588;12.148;2022-09-09T10:00:03;20.60;99.90
11304;DHT22;5707;49.588;12.148;2022-09-09T10:02:53;20.90;99.90
11304;DHT22;5707;49.588;12.148;2022-09-09T10:05:37;20.80;99.90
11304;DHT22;5707;49.588;12.148;2022-09-09T10:08:25;20.60;99.90
11304;DHT22;5707;49.588;12.148;2022-09-09T10:11:10;20.20;99.90
11304;DHT22;5707;49.588;12.148;2022-09-09T10:13:57;19.90;99.90
11304;DHT22;5707;49.588;12.148;2022-09-09T10:16:46;20.00;99.90
11304;DHT22;5707;49.588;12.148;2022-09-09T10:19:30;20.40;99.90
11304;DHT22;5707;49.588;12.148;2022-09-09T10:22:25;20.70;99.90
11304;DHT22;5707;49.588;12.148;2022-09-09T10:25:15;20.90;99.90
11304;DHT22;5707;49.588;12.148;2022-09-09T10:28:14;21.20;99.90
11304;DHT22;5707;49.588;12.148;2022-09-09T10:30:57;21.60;99.90
11304;DHT22;5707;49.588;12.148;2022-09-09T10:33:45;22.10;99.90
11304;DHT22;5707;49.588;12.148;2022-09-09T10:36:27;22.30;99.90
11304;DHT22;5707;49.588;12.148;2022-09-09T10:39:10;22.10;99.90
11304;DHT22;5707;49.588;12.148;2022-09-09T10:41:57;21.70;99.90
11304;DHT22;5707;49.588;12.148;2022-09-09T10:44:45;21.50;99.90
11304;DHT22;5707;49.588;12.148;2022-09-09T10:47:32;21.40;99.90
11304;DHT22;5707;49.588;12.148;2022-09-09T10:50:33;21.30;99.90
11304;DHT22;5707;49.588;12.148;2022-09-09T10:53:19;21.60;99.90
11304;DHT22;5707;49.588;12.148;2022-09-09T10:56:03;22.00;99.90
11304;DHT22;5707;49.588;12.148;2022-09-09T10:58:46;22.30;99.90
11304;DHT22;5707;49.588;12.148;2022-09-09T11:01:28;22.00;99.90
11304;DHT22;5707;49.588;12.148;2022-09-09T11:04:12;22.60;99.90
11304;DHT22;5707;49.588;12.148;2022-09-09T11:06:54;23.30;99.90
11304;DHT22;5707;49.588;12.148;2022-09-09T11:09:36;23.60;99.90
11304;DHT22;5707;49.588;12.148;2022-09-09T11:12:18;23.80;99.90
11304;DHT22;5707;49.588;12.148;2022-09-09T11:15:01;24.00;99.90
11304;DHT22;5707;49.588;12.148;2022-09-09T11:17:45;24.00;99.90
11304;DHT22;5707;49.588;12.148;2022-09-09T11:20:27;24.00;99.90
11304;DHT22;5707;49.588;12.148;2022-09-09T11:23:09;24.20;99.90
11304;DHT22;5707;49.588;12.148;2022-09-09T11:25:51;24.40;99.90
11304;DHT22;5707;49.588;12.148;2022-09-09T11:28:35;24.40;99.90
11304;DHT22;5707;49.588;12.148;2022-09-09T11:31:27;24.40;99.90
11304;DHT22;5707;49.588;12.148;2022-09-09T11:34:21;23.80;99.90
11304;DHT22;5707;49.588;12.148;2022-09-09T11:37:10;23.50;99.90
11304;DHT22;5707;49.588;12.148;2022-09-09T11:40:00;23.30;99.90
11304;DHT22;5707;49.588;12.148;2022-09-09T11:42:45;23.50;99.90
11304;DHT22;5707;49.588;12.148;2022-09-09T11:45:26;23.70;99.90
11304;DHT22;5707;49.588;12.148;2022-09-09T11:48:22;23.40;99.90
11304;DHT22;5707;49.588;12.148;2022-09-09T11:51:05;23.30;99.90
11304;DHT22;5707;49.588;12.148;2022-09-09T11:53:50;23.40;99.90
11304;DHT22;5707;49.588;12.148;2022-09-09T11:56:32;23.50;99.90
11304;DHT22;5707;49.588;12.148;2022-09-09T11:59:19;23.30;99.90
11304;DHT22;5707;49.588;12.148;2022-09-09T12:02:00;23.10;99.90
11304;DHT22;5707;49.588;12.148;2022-09-09T12:04:42;23.00;99.90
11304;DHT22;5707;49.588;12.148;2022-09-09T12:07:25;23.20;99.90
11304;DHT22;5707;49.588;12.148;2022-09-09T12:10:19;23.30;99.90
11304;DHT22;5707;49.588;12.148;2022-09-09T12:13:09;23.20;99.90
11304;DHT22;5707;49.588;12.148;2022-09-09T12:15:55;23.10;99.90
11304;DHT22;5707;49.588;12.148;2022-09-09T12:18:37;22.70;99.90
11304;DHT22;5707;49.588;12.148;2022-09-09T12:21:19;22.70;99.90
11304;DHT22;5707;49.588;12.148;2022-09-09T12:24:02;22.80;99.90
11304;DHT22;5707;49.588;12.148;2022-09-09T12:26:49;22.80;99.90
11304;DHT22;5707;49.588;12.148;2022-09-09T12:29:37;22.80;99.90
11304;DHT22;5707;49.588;12.148;2022-09-09T12:32:22;22.90;99.90
11304;DHT22;5707;49.588;12.148;2022-09-09T12:35:03;23.30;99.90
11304;DHT22;5707;49.588;12.148;2022-09-09T12:37:46;23.90;99.90
11304;DHT22;5707;49.588;12.148;2022-09-09T12:40:28;24.30;99.90
11304;DHT22;5707;49.588;12.148;2022-09-09T12:43:18;23.80;99.90
11304;DHT22;5707;49.588;12.148;2022-09-09T12:45:59;23.70;99.90
11304;DHT22;5707;49.588;12.148;2022-09-09T12:48:41;24.10;99.90
11304;DHT22;5707;49.588;12.148;2022-09-09T12:51:23;24.40;97.60
11304;DHT22;5707;49.588;12.148;2022-09-09T12:54:05;24.80;96.60
11304;DHT22;5707;49.588;12.148;2022-09-09T12:56:46;25.10;93.30
11304;DHT22;5707;49.588;12.148;2022-09-09T12:59:27;25.20;91.40
11304;DHT22;5707;49.588;12.148;2022-09-09T13:02:21;25.20;91.70
11304;DHT22;5707;49.588;12.148;2022-09-09T13:05:08;25.20;90.60
11304;DHT22;5707;49.588;12.148;2022-09-09T13:07:59;25.10;91.00
11304;DHT22;5707;49.588;12.148;2022-09-09T13:10:42;25.00;89.00
11304;DHT22;5707;49.588;12.148;2022-09-09T13:13:26;24.70;90.10
11304;DHT22;5707;49.588;12.148;2022-09-09T13:16:18;24.60;90.00
11304;DHT22;5707;49.588;12.148;2022-09-09T13:19:00;24.50;88.80
11304;DHT22;5707;49.588;12.148;2022-09-09T13:21:41;24.50;89.50
11304;DHT22;5707;49.588;12.148;2022-09-09T13:24:27;24.50;88.30
11304;DHT22;5707;49.588;12.148;2022-09-09T13:27:22;24.50;87.40
11304;DHT22;5707;49.588;12.148;2022-09-09T13:33:06;24.70;86.50
11304;DHT22;5707;49.588;12.148;2022-09-09T13:35:58;24.60;85.40
11304;DHT22;5707;49.588;12.148;2022-09-09T13:38:40;24.50;87.10
11304;DHT22;5707;49.588;12.148;2022-09-09T13:41:34;24.50;88.60
11304;DHT22;5707;49.588;12.148;2022-09-09T13:44:17;24.10;81.80
11304;DHT22;5707;49.588;12.148;2022-09-09T13:47:02;23.60;85.00
11304;DHT22;5707;49.588;12.148;2022-09-09T13:49:42;22.90;89.70
11304;DHT22;5707;49.588;12.148;2022-09-09T13:52:24;22.20;93.20
11304;DHT22;5707;49.588;12.148;2022-09-09T13:55:07;21.80;97.50
11304;DHT22;5707;49.588;12.148;2022-09-09T13:57:52;21.40;94.20
11304;DHT22;5707;49.588;12.148;2022-09-09T14:00:34;20.50;96.30
11304;DHT22;5707;49.588;12.148;2022-09-09T14:03:14;19.80;99.90
11304;DHT22;5707;49.588;12.148;2022-09-09T14:05:54;19.40;99.90
11304;DHT22;5707;49.588;12.148;2022-09-09T14:08:34;19.00;99.90
11304;DHT22;5707;49.588;12.148;2022-09-09T14:11:16;18.70;99.90
11304;DHT22;5707;49.588;12.148;2022-09-09T14:13:57;18.50;99.90
11304;DHT22;5707;49.588;12.148;2022-09-09T14:16:37;18.10;99.90
11304;DHT22;5707;49.588;12.148;2022-09-09T14:19:17;17.60;99.90
11304;DHT22;5707;49.588;12.148;2022-09-09T14:21:56;17.10;99.90
11304;DHT22;5707;49.588;12.148;2022-09-09T14:24:38;16.70;99.90
11304;DHT22;5707;49.588;12.148;2022-09-09T14:27:18;15.40;99.90
11304;DHT22;5707;49.588;12.148;2022-09-09T14:29:57;14.20;99.90
11304;DHT22;5707;49.588;12.148;2022-09-09T14:32:39;13.50;99.90
11304;DHT22;5707;49.588;12.148;2022-09-09T14:35:19;13.30;99.90
11304;DHT22;5707;49.588;12.148;2022-09-09T14:37:59;13.20;99.90
11304;DHT22;5707;49.588;12.148;2022-09-09T14:40:40;13.10;99.90
11304;DHT22;5707;49.588;12.148;2022-09-09T14:43:20;13.00;99.90
11304;DHT22;5707;49.588;12.148;2022-09-09T14:46:05;13.00;99.90
11304;DHT22;5707;49.588;12.148;2022-09-09T14:48:46;13.10;99.90
11304;DHT22;5707;49.588;12.148;2022-09-09T14:51:27;13.30;99.90
11304;DHT22;5707;49.588;12.148;2022-09-09T14:54:07;13.50;99.90
11304;DHT22;5707;49.588;12.148;2022-09-09T14:56:47;13.50;99.90
11304;DHT22;5707;49.588;12.148;2022-09-09T14:59:27;13.50;99.90
11304;DHT22;5707;49.588;12.148;2022-09-09T15:02:07;13.60;99.90
11304;DHT22;5707;49.588;12.148;2022-09-09T15:04:48;13.70;99.90
11304;DHT22;5707;49.588;12.148;2022-09-09T15:07:28;13.70;99.90
11304;DHT22;5707;49.588;12.148;2022-09-09T15:10:11;13.70;99.90
11304;DHT22;5707;49.588;12.148;2022-09-09T15:12:51;13.70;99.90
11304;DHT22;5707;49.588;12.148;2022-09-09T15:15:31;13.70;99.90
11304;DHT22;5707;49.588;12.148;2022-09-09T15:18:10;13.60;99.90
11304;DHT22;5707;49.588;12.148;2022-09-09T15:20:52;13.60;99.90
11304;DHT22;5707;49.588;12.148;2022-09-09T15:23:32;13.40;99.90
11304;DHT22;5707;49.588;12.148;2022-09-09T15:26:11;13.40;99.90
11304;DHT22;5707;49.588;12.148;2022-09-09T15:28:53;13.30;99.90
11304;DHT22;5707;49.588;12.148;2022-09-09T15:31:33;13.30;99.90
11304;DHT22;5707;49.588;12.148;2022-09-09T15:34:12;13.30;99.90
11304;DHT22;5707;49.588;12.148;2022-09-09T15:36:52;13.30;99.90
11304;DHT22;5707;49.588;12.148;2022-09-09T15:39:34;13.30;99.90
11304;DHT22;5707;49.588;12.148;2022-09-09T15:42:14;13.20;99.90
11304;DHT22;5707;49.588;12.148;2022-09-09T15:44:53;13.10;99.90
11304;DHT22;5707;49.588;12.148;2022-09-09T15:47:33;13.00;99.90
11304;DHT22;5707;49.588;12.148;2022-09-09T15:50:13;13.00;99.90
11304;DHT22;5707;49.588;12.148;2022-09-09T15:52:53;13.00;99.90
11304;DHT22;5707;49.588;12.148;2022-09-09T15:55:33;13.00;99.90
11304;DHT22;5707;49.588;12.148;2022-09-09T15:58:13;13.10;99.90
11304;DHT22;5707;49.588;12.148;2022-09-09T16:00:52;13.10;99.90
11304;DHT22;5707;49.588;12.148;2022-09-09T16:03:34;13.00;99.90
11304;DHT22;5707;49.588;12.148;2022-09-09T16:06:16;13.20;99.90
11304;DHT22;5707;49.588;12.148;2022-09-09T16:08:57;13.30;99.90
11304;DHT22;5707;49.588;12.148;2022-09-09T16:11:40;13.50;99.90
11304;DHT22;5707;49.588;12.148;2022-09-09T16:14:20;13.60;99.90
11304;DHT22;5707;49.588;12.148;2022-09-09T16:17:01;13.70;99.90
11304;DHT22;5707;49.588;12.148;2022-09-09T16:19:42;13.80;99.90
11304;DHT22;5707;49.588;12.148;2022-09-09T16:22:24;14.00;99.90
11304;DHT22;5707;49.588;12.148;2022-09-09T16:25:04;14.10;99.90
11304;DHT22;5707;49.588;12.148;2022-09-09T16:27:43;14.10;99.90
11304;DHT22;5707;49.588;12.148;2022-09-09T16:30:23;14.10;99.90
11304;DHT22;5707;49.588;12.148;2022-09-09T16:33:03;14.10;99.90
11304;DHT22;5707;49.588;12.148;2022-09-09T16:35:43;14.00;99.90
11304;DHT22;5707;49.588;12.148;2022-09-09T16:38:23;13.90;99.90
11304;DHT22;5707;49.588;12.148;2022-09-09T16:41:03;13.80;99.90
11304;DHT22;5707;49.588;12.148;2022-09-09T16:43:44;13.70;99.90
11304;DHT22;5707;49.588;12.148;2022-09-09T16:46:24;13.60;99.90
11304;DHT22;5707;49.588;12.148;2022-09-09T16:49:04;13.70;99.90
11304;DHT22;5707;49.588;12.148;2022-09-09T16:51:46;13.90;99.90
11304;DHT22;5707;49.588;12.148;2022-09-09T16:54:27;14.00;99.90
11304;DHT22;5707;49.588;12.148;2022-09-09T16:57:06;14.10;99.90
11304;DHT22;5707;49.588;12.148;2022-09-09T16:59:46;14.20;99.90
11304;DHT22;5707;49.588;12.148;2022-09-09T17:02:26;14.20;99.90
11304;DHT22;5707;49.588;12.148;2022-09-09T17:05:08;14.10;99.90
11304;DHT22;5707;49.588;12.148;2022-09-09T17:07:49;14.00;99.90
11304;DHT22;5707;49.588;12.148;2022-09-09T17:10:30;14.00;99.90
11304;DHT22;5707;49.588;12.148;2022-09-09T17:13:10;14.00;99.90
11304;DHT22;5707;49.588;12.148;2022-09-09T17:15:52;13.90;99.90